Webcam Zuidwest more information Webcam Zuidwest


Onweer radar more information blitzortung!


Regen radar more information rain snow radar


Weerstation Alkmaar Centrum

Weerstation Luyksgestel

Website Noardburgum


U vindt ons ook hier:

Het Weer Aktueel

UK Metoffice

European Weather Network

Weather Underground

AWEKAS

Citizen Weather Observer Program (CWOP)

HAMweather, WeatherForYou, PWS Weather



Het weer levert geen direct gevaar op.    Er zijn geen waarschuwingen afgegeven.

METAR rapporten vliegvelden

   
EHLW - Leeuwarden Rnlaf, Netherlands
Afstand tot: W 17 km
Gewijzigd: 09-07-2020 15:42
Nevel, Bewolking  
Nevel, Bewolking  
   Wind: varieert 20.4 km/h
Wind: varieert 20.4 km/h
Temperatuur: 13°C
Dauwpunt: 12°C
Vochtigheid: 94%
Barometer: 1011 hPa
Bewolking: Bewolking
Zicht: 4 km
Bewolking: Grotendeels bewolkt 2200 ft,
Bewolking 2500 ft
EHLW 091342Z AUTO VRB11KT 4300 BR BKN022 OVC025 13/12 Q1011 GRN 08011KT 8000 -RA SCT007 BKN020 TEMPO 3000 RA FEW005 BKN007
EHMA - Awg-1 Sea, Netherlands
Afstand tot: N 31 km
Gewijzigd: 09-07-2020 15:25
Motregen, Grotendeels bewolkt  
Motregen, Grotendeels bewolkt  
   Wind: Oosten 25.9 km/h
Wind: Oosten 25.9 km/h
Temperatuur: 14°C
Dauwpunt: 12°C
Vochtigheid: 88%
Barometer: 1011 hPa
Bewolking: Grotendeels bewolkt
Zicht: meer dan 10 km
Bewolking: Licht bewolkt 500 ft,
Gedeeltelijk bewolkt 600 ft,
Grotendeels bewolkt 900 ft
EHMA 091325Z AUTO 10014KT 050V130 9999 DZ FEW005 SCT006 BKN009 14/12 Q1011
EHGG - Groningen/Eelde, Netherlands
Afstand tot: OZO 40 km
Gewijzigd: 09-07-2020 15:25
Wat regen mogelijk, Bewolking  
Wat regen mogelijk, Bewolking  
   Wind: ONO 14.8 km/h
Wind: ONO 14.8 km/h
Temperatuur: 14°C
Dauwpunt: 13°C
Vochtigheid: 94%
Barometer: 1011 hPa
Bewolking: Bewolking
Zicht: 5 km
Bewolking: Gedeeltelijk bewolkt 300 ft,
Grotendeels bewolkt 400 ft,
Bewolking 600 ft
EHGG 091325Z AUTO 06008KT 030V100 5000 -RA SCT003 BKN004 OVC006 14/13 Q1011 RERA REDZ NOSIG
EHVL - Vlieland Island, Netherlands
Afstand tot: W 72 km
Gewijzigd: 09-07-2020 15:43
Bewolking  
Bewolking  
   Wind: Oosten 33.3 km/h
Wind: Oosten 33.3 km/h
Temperatuur: 13°C
Dauwpunt: 13°C
Vochtigheid: 100%
Barometer: 1011 hPa
Bewolking: Bewolking
Zicht: meer dan 10 km
Bewolking: Licht bewolkt 500 ft,
Grotendeels bewolkt 600 ft,
Bewolking 1700 ft
EHVL 091343Z AUTO 08018KT 9999 FEW005 BKN006 OVC017 13/13 Q1011 YLO
EHMG - L9-Ff-1 Sea, Netherlands
Afstand tot: WNW 81 km
Gewijzigd: 09-07-2020 15:25
Grotendeels bewolkt  
Grotendeels bewolkt  
   Wind: Oosten 33.3 km/h
Wind: Oosten 33.3 km/h
Temperatuur: 14°C
Dauwpunt: 12°C
Vochtigheid: 88%
Barometer: 1012 hPa
Bewolking: Grotendeels bewolkt
Zicht: meer dan 10 km
Bewolking: Licht bewolkt 900 ft,
Gedeeltelijk bewolkt 1100 ft,
Grotendeels bewolkt 1300 ft
EHMG 091325Z AUTO 09018KT 9999 FEW009 SCT011 BKN013 14/12 Q1012
EHKD - De Kooy (navy), Netherlands
Afstand tot: WZW 89 km
Gewijzigd: 09-07-2020 15:49
Zware motregen, Grotendeels bewolkt  
Zware motregen, Grotendeels bewolkt  
   Wind: Westen 16.7 km/h
Wind: Westen 16.7 km/h
Temperatuur: 16°C
Dauwpunt: 16°C
Vochtigheid: 100%
Barometer: 1010 hPa
Bewolking: Grotendeels bewolkt
Zicht: 3 km
Bewolking: Gedeeltelijk bewolkt 200 ft,
Grotendeels bewolkt 400 ft,
Grotendeels bewolkt 500 ft
EHKD 091349Z AUTO 28009KT 240V320 2600 R21/2600N +DZ SCT002 BKN004 BKN005 16/16 Q1010 AMB 30010KT 9999 SCT007 BKN010 OVC015 TEMPO 3000 -DZRA FEW002 SCT003 BKN006

Script ontwikkeld door  Saratoga-weather.org Aangepast voor de template door  Weerstation Leuven

Apparatuur in gebruik:

Weerstation
Davis Vantage pro 2

Weerprogramma
Meteobridge

Weercomputer
TP-Link TL-WR703N

Webleverancier
Versio

Davis Vantage pro 2

Meteobridge

TP-Link TL-WR703N

Versio